Time;durP1;ratioP1;P1;durP2;ratioP2;P2;SDS_P1;SDS_P2;PMS_P1;PMS_P2;Temp;Humidity;BMP_temperature;BMP_pressure;BME280_temperature;BME280_humidity;BME280_pressure;Samples;Min_cycle;Max_cycle;Signal;HPM_P1;HPM_P2
2022/06/01 00:02:18;;;;;;;25.80;11.38;;;;;;;14.65;76.46;96105.53;5112441;28;20048;-78
2022/06/01 00:04:45;;;;;;;14.18;9.52;;;;;;;14.52;76.51;96098.53;5111899;28;20410;-79
2022/06/01 00:07:12;;;;;;;173.35;45.65;;;;;;;14.60;76.42;96100.28;5111335;28;20950;-78
2022/06/01 00:09:38;;;;;;;25.30;18.30;;;;;;;14.55;76.29;96097.81;5113949;28;20062;-79
2022/06/01 00:12:07;;;;;;;176.40;45.72;;;;;;;14.53;76.44;96108.34;5114674;28;20451;-78
2022/06/01 00:14:35;;;;;;;176.90;45.55;;;;;;;14.52;76.57;96098.53;5117638;28;20139;-78
2022/06/01 00:17:02;;;;;;;163.60;44.75;;;;;;;14.44;76.61;96102.97;5116183;28;20047;-78
2022/06/01 00:19:29;;;;;;;171.85;46.22;;;;;;;14.38;76.42;96107.09;5115322;28;20043;-77
2022/06/01 00:22:15;;;;;;;180.02;45.67;;;;;;;14.40;76.27;96112.22;5113458;28;20406;-78
2022/06/01 00:24:44;;;;;;;193.30;47.43;;;;;;;14.38;76.59;96098.09;5112502;28;20464;-77
2022/06/01 00:27:12;;;;;;;183.88;48.15;;;;;;;14.39;76.51;96111.44;5113303;28;20288;-77
2022/06/01 00:29:40;;;;;;;16.92;6.05;;;;;;;14.37;76.87;96100.03;5112288;28;20405;-78
2022/06/01 00:32:11;;;;;;;17.00;8.63;;;;;;;14.42;76.70;96099.78;5112517;28;20055;-77
2022/06/01 00:34:38;;;;;;;10.25;4.70;;;;;;;14.52;76.68;96104.00;5110976;28;20448;-79
2022/06/01 00:37:05;;;;;;;11.18;5.45;;;;;;;14.44;75.89;96105.69;5112120;28;20043;-77
2022/06/01 00:39:32;;;;;;;119.70;38.40;;;;;;;14.39;76.24;96105.94;5112640;28;20040;-78
2022/06/01 00:42:09;;;;;;;10.00;5.18;;;;;;;14.44;75.58;96107.66;5110485;28;20448;-77
2022/06/01 00:44:36;;;;;;;11.63;5.53;;;;;;;14.53;75.14;96105.59;5111202;28;20466;-78
2022/06/01 00:47:05;;;;;;;123.65;42.70;;;;;;;14.45;74.89;96103.75;5111892;28;20050;-78
2022/06/01 00:49:34;;;;;;;152.27;44.47;;;;;;;14.37;74.75;96105.50;5112199;28;20490;-78
2022/06/01 00:52:01;;;;;;;163.32;45.88;;;;;;;14.29;75.37;96101.75;5111965;28;20036;-78
2022/06/01 00:54:27;;;;;;;;;;;;;;;14.21;75.55;96105.47;5113636;28;20050;-78
2022/06/01 00:56:58;;;;;;;161.95;43.60;;;;;;;14.14;75.90;96105.22;5112311;28;20852;-77
2022/06/01 00:59:29;;;;;;;31.10;28.20;;;;;;;14.15;76.00;96101.38;5111641;28;20039;-78
2022/06/01 01:01:57;;;;;;;10.10;5.18;;;;;;;14.16;76.23;96107.63;5110991;28;20456;-78
2022/06/01 01:04:25;;;;;;;10.10;5.20;;;;;;;14.18;75.65;96106.13;5111026;28;20517;-78
2022/06/01 01:06:51;;;;;;;2.55;1.63;;;;;;;14.20;75.88;96103.88;5112332;28;20387;-78
2022/06/01 01:09:18;;;;;;;4.05;1.80;;;;;;;14.20;75.58;96109.34;5111418;28;20044;-78
2022/06/01 01:11:48;;;;;;;4.97;2.00;;;;;;;14.21;75.71;96108.19;5111753;28;20047;-77
2022/06/01 01:14:19;;;;;;;4.10;1.70;;;;;;;14.18;75.61;96108.88;5111119;28;20043;-78
2022/06/01 01:16:48;;;;;;;2.47;2.00;;;;;;;14.17;75.48;96110.03;5111740;28;20056;-78
2022/06/01 01:19:20;;;;;;;3.95;1.77;;;;;;;14.14;75.65;96107.16;5111362;28;20052;-78
2022/06/01 01:21:56;;;;;;;5.68;1.95;;;;;;;14.06;75.91;96108.91;5111470;28;20044;-78
2022/06/01 01:24:30;;;;;;;2.05;1.75;;;;;;;14.04;76.01;96106.53;5111023;28;20084;-77
2022/06/01 01:26:58;;;;;;;2.95;2.08;;;;;;;13.99;76.06;96108.69;5111905;28;20043;-78
2022/06/01 01:29:36;;;;;;;5.75;2.00;;;;;;;13.89;76.35;96106.47;5111652;28;20440;-78
2022/06/01 01:32:05;;;;;;;12.45;4.18;;;;;;;13.91;76.16;96107.69;5113930;28;20044;-77
2022/06/01 01:34:32;;;;;;;4.32;2.22;;;;;;;13.95;75.86;96107.81;5121614;28;20068;-78
2022/06/01 01:37:02;;;;;;;18.30;10.10;;;;;;;13.96;76.08;96114.88;5124893;28;20050;-78
2022/06/01 01:39:31;;;;;;;11.93;8.23;;;;;;;13.95;76.59;96113.28;5116697;28;20036;-79
2022/06/01 01:41:59;;;;;;;10.73;5.50;;;;;;;13.95;76.27;96113.28;5111312;28;20052;-77
2022/06/01 01:44:30;;;;;;;9.77;5.63;;;;;;;13.94;76.47;96114.41;5110680;28;20437;-78
2022/06/01 01:46:58;;;;;;;11.25;5.97;;;;;;;13.90;76.33;96111.56;5111175;28;20060;-78
2022/06/01 01:49:30;;;;;;;11.32;6.18;;;;;;;13.92;76.01;96114.75;5110338;28;20039;-78
2022/06/01 01:51:59;;;;;;;8.98;5.30;;;;;;;13.92;75.72;96113.97;5111060;28;20039;-78
2022/06/01 01:54:36;;;;;;;10.60;5.35;;;;;;;13.92;76.03;96108.50;5110284;28;20791;-78
2022/06/01 01:57:19;;;;;;;11.45;6.07;;;;;;;13.91;76.25;96115.91;5110340;28;20517;-77
2022/06/01 01:59:59;;;;;;;12.68;6.75;;;;;;;13.89;76.47;96107.25;5110970;28;20043;-78
2022/06/01 02:02:33;;;;;;;171.90;43.50;;;;;;;13.90;75.87;96105.31;5110641;28;20062;-77
2022/06/01 02:08:00;;;;;;;9.75;4.20;;;;;;;13.98;74.74;96107.91;5104169;28;21019;-78
2022/06/01 02:13:15;;;;;;;29.20;10.18;;;;;;;13.94;75.40;96112.50;5104245;28;20051;-79
2022/06/01 02:15:46;;;;;;;11.70;6.07;;;;;;;13.88;75.77;96111.09;5109227;28;20050;-79
2022/06/01 02:18:17;;;;;;;15.85;7.03;;;;;;;13.86;75.97;96109.88;5110144;28;20048;-78
2022/06/01 02:20:49;;;;;;;11.25;5.38;;;;;;;13.81;76.10;96108.16;5110628;28;20050;-79
2022/06/01 02:23:17;;;;;;;183.18;47.92;;;;;;;13.77;76.53;96113.53;5113279;28;20048;-77
2022/06/01 02:25:48;;;;;;;160.77;42.97;;;;;;;13.72;76.26;96116.50;5110787;28;20036;-78
2022/06/01 02:28:17;;;;;;;170.73;45.15;;;;;;;13.67;76.10;96119.47;5110050;28;20104;-78
2022/06/01 02:30:44;;;;;;;162.93;43.50;;;;;;;13.62;76.20;96119.69;5110834;28;20384;-77
2022/06/01 02:33:17;;;;;;;10.60;4.65;;;;;;;13.67;76.24;96113.97;5108651;28;20467;-78
2022/06/01 02:35:46;;;;;;;175.10;47.35;;;;;;;13.74;75.61;96113.44;5110592;28;20043;-78
2022/06/01 02:38:17;;;;;;;127.30;39.60;;;;;;;13.67;75.56;96113.97;5109532;28;20047;-78
2022/06/01 02:40:44;;;;;;;;;;;;;;;13.70;75.59;96112.50;5110327;28;20400;-78
2022/06/01 02:43:10;;;;;;;;;;;;;;;13.69;75.66;96122.66;5110087;28;20358;-78
2022/06/01 02:45:38;;;;;;;;;;;;;;;13.68;75.42;96126.56;5110235;28;20510;-79
2022/06/01 02:48:05;;;;;;;;;;;;;;;13.68;75.41;96128.50;5110161;28;19923;-78
2022/06/01 02:50:32;;;;;;;;;;;;;;;13.68;75.36;96125.75;5110026;28;19920;-78
2022/06/01 02:52:59;;;;;;;;;;;;;;;13.66;75.02;96128.81;5110313;28;19919;-79
2022/06/01 02:55:27;;;;;;;;;;;;;;;13.64;74.85;96131.09;5109772;28;19920;-78
2022/06/01 02:57:54;;;;;;;184.75;46.40;;;;;;;13.63;74.71;96131.47;5109511;28;20473;-78
2022/06/01 03:00:26;;;;;;;182.13;48.55;;;;;;;13.64;74.51;96130.31;5108185;28;20449;-78
2022/06/01 03:02:57;;;;;;;179.23;46.00;;;;;;;13.55;74.41;96136.69;5110064;28;20046;-77
2022/06/01 03:05:27;;;;;;;158.10;46.80;;;;;;;13.49;74.67;96129.84;5113186;28;20044;-79
2022/06/01 03:07:54;;;;;;;158.80;44.00;;;;;;;13.45;75.27;96134.41;5113759;28;20404;-78
2022/06/01 03:10:21;;;;;;;173.15;44.65;;;;;;;13.52;75.19;96136.56;5112884;28;20444;-78
2022/06/01 03:12:47;;;;;;;152.73;44.97;;;;;;;13.46;75.23;96137.94;5113524;28;20080;-78
2022/06/01 03:15:15;;;;;;;;;;;;;;;13.44;75.39;96143.75;5112670;28;20455;-78
2022/06/01 03:17:42;;;;;;;;;;;;;;;13.43;74.46;96153.09;5113986;28;20406;-78
2022/06/01 03:20:11;;;;;;;;;;;;;;;13.42;73.71;96153.44;5113325;28;19978;-79
2022/06/01 03:22:38;;;;;;;;;;;;;;;13.36;74.25;96147.38;5113494;28;20498;-78
2022/06/01 03:25:06;;;;;;;;;;;;;;;13.30;74.50;96149.53;5113575;28;19931;-78
2022/06/01 03:27:33;;;;;;;108.55;29.50;;;;;;;13.24;74.88;96150.91;5114117;28;20804;-78
2022/06/01 03:30:00;;;;;;;55.23;14.97;;;;;;;13.27;74.61;96154.91;5112649;28;20456;-78
2022/06/01 03:32:26;;;;;;;15.35;10.35;;;;;;;13.23;74.89;96157.53;5114088;28;20040;-81
2022/06/01 03:34:53;;;;;;;8.00;4.07;;;;;;;13.16;75.29;96154.53;5114624;28;20043;-78
2022/06/01 03:37:21;;;;;;;16.27;9.20;;;;;;;13.07;75.68;96162.03;5113659;28;20052;-78
2022/06/01 03:39:48;;;;;;;125.30;46.20;;;;;;;13.03;76.15;96161.88;5115135;28;20092;-78
2022/06/01 03:42:14;;;;;;;;;;;;;;;12.92;76.51;96162.66;5113944;28;20048;-78
2022/06/01 03:47:25;;;;;;;32.97;13.40;;;;;;;12.93;76.48;96167.00;5113741;28;20874;-78
2022/06/01 03:49:52;;;;;;;8.57;4.60;;;;;;;12.88;76.64;96159.00;5121086;28;20047;-78
2022/06/01 03:52:18;;;;;;;;;;;;;;;12.80;76.53;96166.16;5118763;28;20047;-78
2022/06/01 03:54:46;;;;;;;;;;;;;;;12.68;76.99;96161.44;5105481;28;20468;-78
2022/06/01 03:57:13;;;;;;;;;;;;;;;12.61;77.14;96161.19;5113682;28;20289;-77
2022/06/01 03:59:40;;;;;;;87.50;36.80;;;;;;;12.65;77.56;96164.06;5114134;28;19923;-78
2022/06/01 04:02:07;;;;;;;11.65;4.70;;;;;;;12.70;77.54;96164.66;5111761;28;20444;-78
2022/06/01 04:04:35;;;;;;;148.55;42.70;;;;;;;12.68;77.27;96177.81;5113176;28;20046;-78
2022/06/01 04:07:01;;;;;;;162.52;43.15;;;;;;;12.73;77.30;96168.63;5111278;28;20444;-78
2022/06/01 04:09:29;;;;;;;162.07;40.60;;;;;;;12.85;77.29;96176.09;5111420;28;20447;-77
2022/06/01 04:11:58;;;;;;;160.73;44.93;;;;;;;12.89;77.00;96171.53;5112949;28;20039;-77
2022/06/01 04:14:24;;;;;;;100.78;27.98;;;;;;;12.84;77.48;96169.00;5112006;28;20046;-78
2022/06/01 04:16:51;;;;;;;17.42;8.77;;;;;;;12.88;77.12;96184.38;5111575;28;20039;-77
2022/06/01 04:19:18;;;;;;;;;;;;;;;12.89;76.91;96182.44;5112430;28;20051;-77
2022/06/01 04:21:47;;;;;;;;;;;;;;;12.87;77.42;96185.53;5113091;28;19923;-77
2022/06/01 04:24:15;;;;;;;;;;;;;;;12.95;77.61;96181.13;5112258;28;19927;-78
2022/06/01 04:26:42;;;;;;;;;;;;;;;12.89;77.42;96182.44;5112831;28;20001;-78
2022/06/01 04:29:10;;;;;;;12.70;6.03;;;;;;;12.95;77.14;96192.06;5111200;28;20824;-77
2022/06/01 04:31:38;;;;;;;91.18;26.27;;;;;;;12.92;77.06;96187.25;5112126;28;20039;-77
2022/06/01 04:34:05;;;;;;;170.77;45.50;;;;;;;12.87;76.98;96182.00;5111814;28;20053;-78
2022/06/01 04:36:32;;;;;;;179.13;44.50;;;;;;;12.85;77.72;96187.03;5111274;28;20975;-77
2022/06/01 04:38:58;;;;;;;181.35;47.00;;;;;;;12.95;77.17;96186.59;5111661;28;20324;-77
2022/06/01 04:41:25;;;;;;;183.13;47.38;;;;;;;12.95;77.79;96192.06;5111411;28;20043;-77
2022/06/01 04:43:52;;;;;;;181.95;47.67;;;;;;;13.00;78.21;96192.66;5109086;28;20051;-78
2022/06/01 04:46:19;;;;;;;182.33;47.67;;;;;;;13.05;78.22;96197.09;5091272;28;20101;-77
2022/06/01 04:48:46;;;;;;;168.17;44.23;;;;;;;13.02;78.23;96204.03;5091762;28;20032;-79
2022/06/01 04:51:13;;;;;;;181.50;45.78;;;;;;;13.05;77.81;96191.63;5089954;28;20823;-78
2022/06/01 04:53:42;;;;;;;177.15;47.05;;;;;;;13.03;77.61;96188.44;5091311;28;20097;-78
2022/06/01 04:56:10;;;;;;;153.03;51.70;;;;;;;13.04;77.28;96192.75;5090968;28;20044;-78
2022/06/01 04:58:37;;;;;;;147.93;44.13;;;;;;;13.03;77.76;96182.97;5090645;28;21173;-78
2022/06/01 05:01:04;;;;;;;157.70;46.25;;;;;;;13.06;77.59;96185.03;5090980;28;20047;-77
2022/06/01 05:03:32;;;;;;;121.10;48.80;;;;;;;13.07;77.76;96190.16;5091678;28;20036;-78
2022/06/01 05:05:59;;;;;;;164.63;45.17;;;;;;;13.16;77.85;96181.06;5090062;28;20441;-77
2022/06/01 05:08:25;;;;;;;;;;;;;;;13.18;77.78;96185.03;5091143;28;20459;-77
2022/06/01 05:10:52;;;;;;;;;;;;;;;13.25;77.81;96185.31;5091674;28;20424;-77
2022/06/01 05:13:20;;;;;;;153.70;42.97;;;;;;;13.39;77.51;96184.22;5095956;28;20482;-78
2022/06/01 05:15:48;;;;;;;;;;;;;;;13.37;77.66;96187.28;5111566;28;20039;-77
2022/06/01 05:18:14;;;;;;;;;;;;;;;13.44;77.63;96186.72;5115568;28;20463;-77
2022/06/01 05:20:42;;;;;;;9.90;7.15;;;;;;;13.60;77.39;96198.59;5110819;28;20472;-77
2022/06/01 05:23:09;;;;;;;150.70;43.30;;;;;;;13.66;77.14;96191.75;5110856;28;20059;-77
2022/06/01 05:25:36;;;;;;;;;;;;;;;13.64;77.74;96194.03;5111983;28;20047;-77
2022/06/01 05:28:02;;;;;;;172.07;44.40;;;;;;;13.77;77.65;96190.16;5110268;28;20408;-77
2022/06/01 05:30:29;;;;;;;161.35;44.22;;;;;;;13.82;77.82;96192.66;5111538;28;20044;-77
2022/06/01 05:32:55;;;;;;;170.95;44.95;;;;;;;13.90;77.96;96198.38;5111346;28;20047;-78
2022/06/01 05:35:22;;;;;;;112.60;40.20;;;;;;;14.04;77.91;96187.84;5110075;28;20452;-77
2022/06/01 05:37:50;;;;;;;;;;;;;;;14.18;77.55;96193.75;5112542;28;20043;-78
2022/06/01 05:40:16;;;;;;;7.90;4.23;;;;;;;14.28;77.33;96198.78;5111108;28;20408;-78
2022/06/01 05:42:43;;;;;;;8.98;4.88;;;;;;;14.38;76.41;96197.50;5110020;28;20974;-77
2022/06/01 05:45:10;;;;;;;14.40;9.20;;;;;;;14.46;75.81;96201.22;5109939;27;20040;-76
2022/06/01 05:47:37;;;;;;;186.35;46.70;;;;;;;14.50;75.84;96205.72;5109866;28;20440;-77
2022/06/01 05:50:05;;;;;;;19.65;18.35;;;;;;;14.68;75.31;96200.75;5110031;28;20047;-76
2022/06/01 05:52:31;;;;;;;61.97;20.20;;;;;;;14.70;75.08;96195.72;5110405;28;20054;-77
2022/06/01 05:54:59;;;;;;;37.38;11.18;;;;;;;14.76;75.15;96201.75;5110538;28;20070;-77
2022/06/01 05:57:29;;;;;;;170.23;46.75;;;;;;;14.72;74.20;96201.66;5112077;28;20517;-78
2022/06/01 05:59:55;;;;;;;170.35;46.10;;;;;;;14.65;73.52;96195.97;5114160;28;20048;-79
2022/06/01 06:02:22;;;;;;;6.05;3.47;;;;;;;14.77;74.15;96198.69;5110498;28;20454;-78
2022/06/01 06:04:48;;;;;;;28.63;9.53;;;;;;;14.79;73.90;96190.91;5111499;28;20035;-78
2022/06/01 06:07:15;;;;;;;15.77;6.68;;;;;;;15.00;73.56;96189.88;5111589;28;20947;-79
2022/06/01 06:09:41;;;;;;;9.48;4.40;;;;;;;15.09;73.28;96190.53;5112480;28;20083;-79
2022/06/01 06:12:10;;;;;;;12.47;6.43;;;;;;;15.16;72.88;96193.47;5111241;28;20048;-78
2022/06/01 06:14:36;;;;;;;127.10;35.20;;;;;;;15.19;71.74;96198.25;5113574;28;20117;-78
2022/06/01 06:17:03;;;;;;;9.65;4.20;;;;;;;15.34;72.55;96197.44;5111250;28;20448;-78
2022/06/01 06:19:29;;;;;;;31.48;12.18;;;;;;;15.40;71.91;96198.81;5114055;28;20051;-79
2022/06/01 06:21:56;;;;;;;166.43;46.25;;;;;;;15.50;72.39;96202.16;5112602;28;20530;-78
2022/06/01 06:24:22;;;;;;;169.07;45.05;;;;;;;15.59;72.44;96200.03;5112247;28;20040;-78
2022/06/01 06:26:49;;;;;;;127.32;34.28;;;;;;;15.62;72.49;96204.84;5112724;28;20501;-78
2022/06/01 06:29:19;;;;;;;12.17;5.87;;;;;;;15.68;72.60;96197.97;5109785;28;20452;-80
2022/06/01 06:31:46;;;;;;;8.23;4.63;;;;;;;15.77;71.62;96206.81;5111950;28;20043;-78
2022/06/01 06:34:12;;;;;;;10.70;6.67;;;;;;;15.71;70.99;96197.22;5111154;28;20059;-78
2022/06/01 06:36:39;;;;;;;7.60;4.32;;;;;;;15.79;71.93;96196.28;5112337;28;20063;-79
2022/06/01 06:39:05;;;;;;;11.30;6.05;;;;;;;15.79;71.97;96203.72;5111642;28;20422;-79
2022/06/01 06:41:32;;;;;;;10.07;5.30;;;;;;;15.83;72.30;96197.16;5115089;28;20043;-78
2022/06/01 06:43:59;;;;;;;6.40;4.70;;;;;;;15.84;72.11;96196.00;5116105;28;20047;-79
2022/06/01 06:46:27;;;;;;;6.57;5.03;;;;;;;16.00;72.26;96200.69;5125629;28;20297;-78
2022/06/01 06:48:53;;;;;;;6.85;3.63;;;;;;;16.07;71.61;96203.59;5116826;28;20270;-78
2022/06/01 06:51:21;;;;;;;12.20;5.50;;;;;;;16.17;71.93;96203.03;5115645;28;20051;-78
2022/06/01 06:53:48;;;;;;;8.35;5.22;;;;;;;16.20;71.30;96205.06;5116581;28;20500;-79
2022/06/01 06:56:16;;;;;;;13.70;12.70;;;;;;;16.22;70.53;96215.69;5116410;28;20620;-78
2022/06/01 06:58:43;;;;;;;9.23;5.13;;;;;;;16.26;72.98;96206.38;5116237;28;20046;-79
2022/06/01 07:01:10;;;;;;;9.20;4.82;;;;;;;16.37;71.50;96201.94;5116361;28;20039;-78
2022/06/01 07:03:38;;;;;;;12.18;4.35;;;;;;;16.49;72.66;96203.75;5117488;28;20062;-79
2022/06/01 07:06:12;;;;;;;11.93;4.60;;;;;;;16.67;71.35;96213.19;5117555;28;20050;-79
2022/06/01 07:08:40;;;;;;;9.48;5.15;;;;;;;16.82;69.36;96206.06;5117725;28;20081;-78
2022/06/01 07:11:09;;;;;;;25.00;10.82;;;;;;;16.73;66.21;96210.97;5096125;28;20043;-78
2022/06/01 07:13:36;;;;;;;7.90;4.40;;;;;;;16.78;67.79;96199.69;5105938;28;20130;-79
2022/06/01 07:16:05;;;;;;;14.93;6.70;;;;;;;16.90;67.94;96196.00;5117692;28;20054;-79
2022/06/01 07:18:32;;;;;;;11.85;8.65;;;;;;;16.99;68.50;96193.03;5117586;28;20043;-78
2022/06/01 07:21:01;;;;;;;8.35;4.82;;;;;;;17.14;67.82;96194.88;5118127;28;20554;-78
2022/06/01 07:23:27;;;;;;;11.85;10.40;;;;;;;17.10;66.19;96194.03;5117144;28;20039;-79
2022/06/01 07:25:54;;;;;;;8.18;4.53;;;;;;;17.13;64.87;96196.06;5116527;28;20043;-78
2022/06/01 07:28:22;;;;;;;8.20;5.80;;;;;;;17.17;67.80;96189.47;5123572;28;20108;-79
2022/06/01 07:30:50;;;;;;;9.63;5.45;;;;;;;17.29;68.21;96191.25;5121731;28;20071;-78
2022/06/01 07:33:16;;;;;;;81.10;23.70;;;;;;;17.34;66.11;96196.44;5116888;28;20039;-79
2022/06/01 07:35:43;;;;;;;102.90;35.85;;;;;;;17.48;65.96;96201.41;5116481;28;20047;-79
2022/06/01 07:43:41;;;;;;;10.05;6.00;;;;;;;17.61;65.33;96199.28;5116092;28;20405;-78
2022/06/01 07:46:08;;;;;;;20.45;9.02;;;;;;;17.60;66.33;96195.72;5115189;28;20044;-78
2022/06/01 07:48:34;;;;;;;11.45;6.05;;;;;;;17.75;64.79;96191.28;5115894;28;20051;-77
2022/06/01 07:51:01;;;;;;;8.70;5.05;;;;;;;17.87;61.78;96196.59;5115692;28;20046;-79
2022/06/01 07:53:29;;;;;;;9.60;5.43;;;;;;;17.97;65.21;96187.72;5115475;28;20042;-78
2022/06/01 07:55:56;;;;;;;10.50;6.05;;;;;;;18.16;62.42;96194.28;5117976;28;20131;-78
2022/06/01 07:58:22;;;;;;;10.73;5.88;;;;;;;18.27;61.01;96189.75;5114781;28;20429;-79
2022/06/01 08:00:49;;;;;;;8.10;4.80;;;;;;;18.40;60.66;96188.34;5115547;28;20044;-78
2022/06/01 08:03:17;;;;;;;15.13;6.97;;;;;;;18.52;65.28;96195.59;5114475;28;20498;-79
2022/06/01 08:05:44;;;;;;;8.95;3.55;;;;;;;18.74;60.99;96191.16;5114088;28;20925;-78
2022/06/01 08:08:11;;;;;;;156.48;45.17;;;;;;;19.12;58.20;96192.03;5114550;28;20395;-79
2022/06/01 08:10:40;;;;;;;164.88;44.00;;;;;;;19.73;57.43;96185.16;5115339;28;20044;-78
2022/06/01 08:13:09;;;;;;;15.73;7.63;;;;;;;20.39;53.48;96183.28;5120182;28;20048;-78
2022/06/01 08:15:40;;;;;;;36.13;13.30;;;;;;;20.40;51.95;96190.41;5116421;28;20071;-78
2022/06/01 08:18:08;;;;;;;17.65;9.15;;;;;;;20.21;52.85;96187.94;5114849;28;20051;-78
2022/06/01 08:20:35;;;;;;;13.40;6.93;;;;;;;19.96;54.00;96198.78;5114996;28;20039;-78
2022/06/01 08:23:02;;;;;;;12.23;5.68;;;;;;;20.08;56.00;96190.19;5114827;28;20047;-79
2022/06/01 08:25:31;;;;;;;11.38;6.65;;;;;;;20.34;59.54;96189.19;5115001;28;20043;-78
2022/06/01 08:28:00;;;;;;;9.80;5.78;;;;;;;20.46;51.38;96186.13;5115417;28;20053;-79
2022/06/01 08:30:29;;;;;;;9.80;5.97;;;;;;;20.72;53.01;96178.75;5114114;28;20043;-79
2022/06/01 08:32:57;;;;;;;7.15;4.65;;;;;;;20.82;50.31;96183.53;5114944;28;20047;-79
2022/06/01 08:35:30;;;;;;;11.60;10.60;;;;;;;20.96;52.78;96178.06;5095738;28;20480;-79
2022/06/01 08:37:57;;;;;;;7.82;4.30;;;;;;;20.97;52.59;96171.34;5116079;28;20046;-78
2022/06/01 08:40:27;;;;;;;6.97;4.82;;;;;;;20.99;51.02;96176.50;5114719;28;20040;-78
2022/06/01 08:43:00;;;;;;;6.75;4.22;;;;;;;21.10;50.36;96180.09;5116930;28;20047;-79
2022/06/01 08:45:29;;;;;;;26.35;11.13;;;;;;;21.24;49.91;96182.91;5105516;28;20083;-79
2022/06/01 08:47:56;;;;;;;11.60;8.93;;;;;;;21.23;45.32;96180.53;5117938;28;20058;-79
2022/06/01 08:50:27;;;;;;;6.40;5.00;;;;;;;21.39;44.21;96185.75;5121456;28;20456;-78
2022/06/01 08:52:57;;;;;;;11.37;6.13;;;;;;;21.45;42.12;96189.72;5131057;28;20564;-80
2022/06/01 08:55:28;;;;;;;;;;;;;;;21.49;43.05;96196.84;5135029;28;20039;-80
2022/06/01 08:57:57;;;;;;;;;;;;;;;21.61;43.42;96190.13;5122603;28;20363;-78
2022/06/01 09:00:27;;;;;;;7.70;3.55;;;;;;;21.46;41.51;96189.34;5115612;28;20458;-79
2022/06/01 09:03:03;;;;;;;180.05;47.40;;;;;;;21.47;45.67;96190.13;5116462;27;20510;-79
2022/06/01 09:05:41;;;;;;;9.60;4.67;;;;;;;21.65;44.23;96184.59;5115054;28;20562;-80
2022/06/01 09:08:16;;;;;;;176.10;47.60;;;;;;;21.84;42.71;96181.47;5115724;27;20044;-79
2022/06/01 09:10:53;;;;;;;;;;;;;;;22.01;45.62;96183.44;5116536;28;20047;-79
2022/06/01 09:13:24;;;;;;;22.15;21.10;;;;;;;22.11;41.60;96185.44;5113712;28;21210;-79
2022/06/01 09:15:54;;;;;;;7.00;3.38;;;;;;;22.00;42.07;96179.06;5117021;28;20437;-79
2022/06/01 09:18:27;;;;;;;7.90;4.35;;;;;;;21.80;44.60;96183.44;5125789;28;20448;-80
2022/06/01 09:23:39;;;;;;;178.90;46.22;;;;;;;21.14;40.53;96169.03;5115013;28;20468;-79
2022/06/01 09:26:06;;;;;;;13.95;10.57;;;;;;;21.00;39.70;96167.81;5103386;28;20474;-78
2022/06/01 09:28:37;;;;;;;;;;;;;;;20.79;40.25;96174.06;5114146;28;20039;-80
2022/06/01 09:31:18;;;;;;;17.25;11.80;;;;;;;20.73;41.03;96166.53;5112240;28;20918;-79
2022/06/01 09:33:46;;;;;;;146.60;45.78;;;;;;;20.97;41.97;96167.78;5114229;28;20054;-79
2022/06/01 09:36:27;;;;;;;162.75;46.90;;;;;;;21.22;47.44;96168.66;5114194;28;20058;-80
2022/06/01 09:38:54;;;;;;;;;;;;;;;21.44;44.97;96164.00;5115532;28;20081;-79
2022/06/01 09:41:26;;;;;;;9.38;6.95;;;;;;;21.55;38.71;96164.00;5124175;28;20457;-79
2022/06/01 09:43:57;;;;;;;4.80;3.20;;;;;;;21.86;41.07;96165.22;5117891;28;20447;-78
2022/06/01 09:46:26;;;;;;;;;;;;;;;21.91;40.51;96170.34;5116896;28;20384;-79
2022/06/01 09:48:54;;;;;;;8.98;3.70;;;;;;;21.97;40.36;96163.22;5114525;28;20445;-79
2022/06/01 09:51:25;;;;;;;10.93;9.57;;;;;;;22.09;42.90;96159.28;5114847;28;20051;-77
2022/06/01 09:53:54;;;;;;;134.55;39.20;;;;;;;22.01;39.38;96163.22;5097233;28;20407;-78
2022/06/01 09:56:34;;;;;;;47.90;21.60;;;;;;;21.87;38.40;96164.00;5114926;28;20255;-80
2022/06/01 10:07:21;;;;;;;24.05;9.02;;;;;;;22.06;39.03;96166.41;5114416;28;20563;-78
2022/06/01 10:09:51;;;;;;;47.45;14.60;;;;;;;22.09;39.87;96154.53;5115267;28;20093;-78
2022/06/01 10:12:25;;;;;;;8.70;4.25;;;;;;;22.40;39.23;96152.13;5115919;28;20455;-79
2022/06/01 10:14:54;;;;;;;10.73;6.83;;;;;;;22.50;39.25;96150.50;5120463;28;20036;-80
2022/06/01 10:17:27;;;;;;;183.90;48.30;;;;;;;22.49;42.60;96155.25;5120285;28;20050;-79
2022/06/01 10:20:05;;;;;;;9.57;6.50;;;;;;;22.71;43.15;96160.72;5116395;28;20452;-80
2022/06/01 10:22:37;;;;;;;168.57;47.13;;;;;;;22.79;38.94;96159.53;5115732;28;20486;-80
2022/06/01 10:25:08;;;;;;;;;;;;;;;22.75;41.85;96155.97;5117418;28;20048;-79
2022/06/01 10:27:38;;;;;;;;;;;;;;;22.70;39.37;96159.16;5117636;28;20818;-80
2022/06/01 10:30:08;;;;;;;;;;;;;;;22.69;40.28;96152.03;5117193;28;20298;-79
2022/06/01 10:32:38;;;;;;;;;;;;;;;22.80;42.83;96152.78;5117676;28;19946;-80
2022/06/01 10:35:11;;;;;;;;;;;;;;;22.98;41.25;96153.53;5117225;28;19947;-81
2022/06/01 10:37:40;;;;;;;;;;;;;;;23.11;39.73;96162.97;5116886;28;20404;-80
2022/06/01 10:40:08;;;;;;;;;;;;;;;23.13;38.92;96160.59;5116617;28;19920;-79
2022/06/01 10:45:22;;;;;;;;;;;;;;;22.98;40.56;96159.09;5117290;27;20505;-78
2022/06/01 10:47:55;;;;;;;;;;;;;;;22.73;38.29;96156.38;5117521;28;20256;-80
2022/06/01 10:50:28;;;;;;;9.63;4.63;;;;;;;22.73;40.01;96145.28;5104777;28;20997;-79
2022/06/01 10:53:02;;;;;;;14.10;12.80;;;;;;;22.80;42.19;96147.22;5116554;28;20490;-77
2022/06/01 10:55:32;;;;;;;3.00;1.48;;;;;;;22.81;40.53;96159.91;5116900;28;20115;-80
2022/06/01 10:58:02;;;;;;;14.00;13.20;;;;;;;22.73;41.17;96152.81;5116673;28;20492;-80
2022/06/01 11:00:32;;;;;;;11.77;5.70;;;;;;;22.62;39.17;96156.41;5115123;27;20432;-80
2022/06/01 11:03:36;;;;;;;179.45;46.63;;;;;;;22.48;40.23;96164.78;5115937;28;20039;-80
2022/06/01 11:06:17;;;;;;;188.13;47.83;;;;;;;22.44;40.87;96152.09;5114268;28;20040;-80
2022/06/01 11:08:51;;;;;;;157.90;43.27;;;;;;;22.29;41.58;96154.09;5123626;27;20424;-79
2022/06/01 11:11:25;;;;;;;35.23;12.43;;;;;;;22.42;40.61;96155.28;5118142;28;20457;-79
2022/06/01 11:14:09;;;;;;;31.70;11.43;;;;;;;22.37;43.60;96142.59;5117210;27;20534;-80
2022/06/01 11:16:40;;;;;;;;;;;;;;;22.09;42.54;96148.97;5117528;28;20171;-80
2022/06/01 11:19:15;;;;;;;;;;;;;;;22.09;44.04;96148.97;5118962;28;19926;-77
2022/06/01 11:21:50;;;;;;;;;;;;;;;22.16;43.40;96141.84;5119868;27;19920;-80
2022/06/01 11:24:29;;;;;;;;;;;;;;;22.21;44.68;96138.69;5117459;28;19919;-80
2022/06/01 11:27:09;;;;;;;12.80;11.65;;;;;;;22.19;43.89;96135.53;5115526;27;20465;-80
2022/06/01 11:29:53;;;;;;;182.07;46.40;;;;;;;22.21;42.09;96135.91;5116834;28;20406;-79
2022/06/01 11:32:39;;;;;;;11.38;5.45;;;;;;;22.25;41.80;96133.94;5115493;27;20448;-78
2022/06/01 11:35:12;;;;;;;;;;;;;;;22.14;38.75;96140.28;5118426;28;20066;-78
2022/06/01 11:37:45;;;;;;;9.75;4.75;;;;;;;22.17;41.75;96135.13;5114253;28;20465;-78
2022/06/01 11:40:14;;;;;;;;;;;;;;;22.15;39.77;96141.06;5116214;28;20495;-78
2022/06/01 11:42:46;;;;;;;11.20;5.60;;;;;;;22.09;42.13;96137.09;5106937;28;20793;-80
2022/06/01 11:45:19;;;;;;;25.75;23.80;;;;;;;22.01;41.48;96135.50;5096009;28;20048;-78
2022/06/01 11:47:51;;;;;;;7.68;4.25;;;;;;;22.05;40.36;96148.19;5094572;28;20445;-79
2022/06/01 11:50:25;;;;;;;23.20;22.10;;;;;;;22.20;39.32;96139.88;5093912;28;20536;-78
2022/06/01 11:52:58;;;;;;;112.80;41.55;;;;;;;22.34;41.48;96126.78;5095559;28;20454;-78
2022/06/01 11:55:31;;;;;;;;;;;;;;;22.30;38.64;96125.19;5094036;28;20398;-78
2022/06/01 11:58:07;;;;;;;;;;;;;;;22.25;40.57;96129.16;5094426;28;20075;-78
2022/06/01 12:00:40;;;;;;;161.88;42.85;;;;;;;22.03;41.95;96122.84;5094136;28;19920;-78
2022/06/01 12:03:35;;;;;;;115.70;40.70;;;;;;;22.20;38.32;96132.34;5094221;28;20047;-79
2022/06/01 12:06:03;;;;;;;;;;;;;;;22.29;40.50;96115.28;5095071;28;20414;-79
2022/06/01 12:08:37;;;;;;;167.43;46.03;;;;;;;22.18;41.87;96115.28;5093311;28;20459;-77
2022/06/01 12:11:04;;;;;;;;;;;;;;;22.27;39.69;96112.13;5093889;28;20047;-79
2022/06/01 12:13:35;;;;;;;;;;;;;;;22.42;41.63;96110.88;5095009;28;20043;-79
2022/06/01 12:16:18;;;;;;;;;;;;;;;22.66;36.86;96120.34;5093264;28;19920;-78